createdAt,value
2022-11-02T00:01:19.414Z,2.55
2022-11-02T00:03:47.376Z,2.30
2022-11-02T00:06:15.333Z,2.10
2022-11-02T00:08:43.271Z,2.63
2022-11-02T00:11:12.531Z,2.10
2022-11-02T00:13:40.481Z,2.60
2022-11-02T00:16:11.315Z,1.98
2022-11-02T00:18:39.690Z,2.50
2022-11-02T00:21:07.777Z,2.67
2022-11-02T00:23:35.772Z,2.30
2022-11-02T00:26:04.148Z,2.27
2022-11-02T00:28:33.485Z,2.45
2022-11-02T00:31:01.326Z,2.42
2022-11-02T00:33:29.293Z,2.00
2022-11-02T00:35:57.194Z,2.20
2022-11-02T00:38:25.223Z,1.70
2022-11-02T00:40:53.117Z,1.20
2022-11-02T00:43:21.035Z,1.48
2022-11-02T00:45:50.310Z,1.10
2022-11-02T00:48:18.226Z,1.00
2022-11-02T00:50:46.138Z,0.95
2022-11-02T00:53:14.010Z,1.10
2022-11-02T00:55:41.936Z,1.10
2022-11-02T00:58:09.807Z,1.13
2022-11-02T01:00:37.761Z,0.90
2022-11-02T01:03:07.193Z,0.70
2022-11-02T01:05:35.128Z,1.00
2022-11-02T01:08:03.311Z,0.90
2022-11-02T01:10:31.688Z,0.80
2022-11-02T01:12:59.629Z,0.70
2022-11-02T01:15:27.553Z,1.20
2022-11-02T01:17:55.438Z,1.00
2022-11-02T01:20:24.895Z,1.00
2022-11-02T01:22:52.729Z,1.38
2022-11-02T01:25:20.606Z,1.10
2022-11-02T01:27:48.496Z,1.30
2022-11-02T01:30:16.522Z,1.80
2022-11-02T01:32:44.374Z,1.40
2022-11-02T01:35:12.330Z,1.08
2022-11-02T01:37:41.563Z,1.10
2022-11-02T01:40:10.590Z,1.20
2022-11-02T01:42:38.465Z,1.50
2022-11-02T01:45:07.878Z,1.30
2022-11-02T01:47:39.460Z,1.55
2022-11-02T01:50:09.787Z,1.30
2022-11-02T01:52:38.965Z,1.40
2022-11-02T01:55:14.789Z,1.80
2022-11-02T01:57:46.744Z,1.27
2022-11-02T02:00:16.669Z,1.63
2022-11-02T02:02:49.450Z,1.65
2022-11-02T02:05:18.649Z,1.50
2022-11-02T02:07:47.242Z,1.60
2022-11-02T02:10:16.579Z,1.50
2022-11-02T02:12:45.148Z,1.70
2022-11-02T02:15:14.385Z,2.08
2022-11-02T02:17:48.763Z,2.08
2022-11-02T02:20:31.191Z,1.67
2022-11-02T02:23:42.372Z,1.50
2022-11-02T02:26:39.873Z,1.65
2022-11-02T02:29:17.187Z,1.90
2022-11-02T02:31:50.579Z,1.73
2022-11-02T02:34:21.607Z,1.85
2022-11-02T02:36:53.010Z,1.50
2022-11-02T02:39:27.205Z,1.50
2022-11-02T02:41:59.983Z,1.40
2022-11-02T02:44:35.519Z,1.77
2022-11-02T02:47:07.316Z,2.00
2022-11-02T02:49:38.975Z,1.70
2022-11-02T02:52:08.419Z,1.70
2022-11-02T02:54:39.849Z,1.95
2022-11-02T02:57:13.101Z,1.58
2022-11-02T02:59:43.628Z,2.03
2022-11-02T03:02:17.236Z,2.15
2022-11-02T03:04:45.210Z,2.30
2022-11-02T03:07:15.322Z,2.10
2022-11-02T03:09:50.623Z,1.80
2022-11-02T03:12:27.758Z,2.00
2022-11-02T03:15:10.384Z,1.70
2022-11-02T03:17:47.241Z,2.88
2022-11-02T03:20:23.035Z,2.25
2022-11-02T03:23:03.276Z,2.80
2022-11-02T03:25:37.355Z,2.60
2022-11-02T03:28:13.773Z,2.25
2022-11-02T03:30:46.559Z,2.80
2022-11-02T03:33:20.782Z,2.00
2022-11-02T03:35:55.114Z,2.72
2022-11-02T03:38:26.950Z,2.40
2022-11-02T03:40:57.853Z,2.97
2022-11-02T03:43:26.867Z,2.28
2022-11-02T03:45:59.186Z,2.90
2022-11-02T03:48:30.656Z,2.67
2022-11-02T03:51:01.119Z,2.63
2022-11-02T03:53:36.125Z,2.65
2022-11-02T03:56:08.144Z,2.80
2022-11-02T03:58:37.377Z,2.83
2022-11-02T04:01:09.163Z,2.75
2022-11-02T04:03:41.471Z,3.33
2022-11-02T04:06:09.507Z,3.40
2022-11-02T04:08:40.554Z,3.40
2022-11-02T04:11:26.780Z,2.50
2022-11-02T04:14:12.502Z,2.92
2022-11-02T04:16:42.445Z,2.88
2022-11-02T04:19:27.633Z,2.50
2022-11-02T04:22:13.314Z,2.85
2022-11-02T04:24:59.387Z,3.00
2022-11-02T04:27:27.478Z,2.97
2022-11-02T04:29:55.394Z,2.90
2022-11-02T04:32:38.577Z,3.10
2022-11-02T04:35:07.488Z,3.20
2022-11-02T04:37:57.855Z,2.80
2022-11-02T04:40:37.728Z,2.55
2022-11-02T04:43:05.877Z,3.13
2022-11-02T04:45:33.936Z,2.53
2022-11-02T04:48:04.334Z,3.00
2022-11-02T04:50:32.580Z,2.30
2022-11-02T04:53:01.851Z,2.60
2022-11-02T04:55:30.306Z,2.75
2022-11-02T04:57:58.194Z,2.53
2022-11-02T05:00:26.143Z,3.20
2022-11-02T05:02:54.129Z,2.80
2022-11-02T05:05:23.765Z,3.28
2022-11-02T05:07:51.935Z,2.60
2022-11-02T05:10:19.815Z,2.80
2022-11-02T05:12:47.726Z,3.00
2022-11-02T05:15:16.303Z,2.13
2022-11-02T05:17:44.216Z,2.20
2022-11-02T05:20:12.489Z,2.42
2022-11-02T05:22:44.061Z,2.40
2022-11-02T05:25:12.713Z,2.20
2022-11-02T05:27:40.577Z,3.58
2022-11-02T05:30:09.274Z,2.97
2022-11-02T05:32:37.203Z,2.30
2022-11-02T05:35:05.830Z,1.92
2022-11-02T05:37:33.813Z,2.65
2022-11-02T05:40:03.085Z,1.80
2022-11-02T05:42:31.010Z,1.80
2022-11-02T05:44:59.204Z,1.80
2022-11-02T05:47:27.128Z,1.85
2022-11-02T05:49:55.015Z,1.67
2022-11-02T05:52:22.921Z,2.20
2022-11-02T05:54:50.786Z,2.20
2022-11-02T05:57:20.003Z,1.70
2022-11-02T05:59:49.436Z,2.20
2022-11-02T06:02:18.458Z,1.50
2022-11-02T06:04:47.227Z,1.50
2022-11-02T06:07:15.099Z,1.70
2022-11-02T06:09:43.283Z,2.00
2022-11-02T06:12:11.252Z,1.73
2022-11-02T06:14:40.472Z,1.67
2022-11-02T06:17:08.383Z,1.60
2022-11-02T06:19:36.519Z,1.60
2022-11-02T06:22:04.428Z,1.70
2022-11-02T06:24:32.322Z,2.08
2022-11-02T06:27:00.263Z,1.95
2022-11-02T06:29:28.266Z,2.05
2022-11-02T06:31:57.528Z,2.40
2022-11-02T06:34:25.388Z,1.92
2022-11-02T06:36:53.830Z,2.00
2022-11-02T06:39:21.696Z,1.65
2022-11-02T06:41:49.609Z,2.00
2022-11-02T06:44:17.448Z,1.40
2022-11-02T06:46:45.347Z,1.80
2022-11-02T06:49:14.538Z,2.13
2022-11-02T06:51:42.426Z,2.13
2022-11-02T06:54:10.305Z,1.27
2022-11-02T06:56:38.243Z,1.80
2022-11-02T06:59:06.183Z,1.80
2022-11-02T07:01:35.374Z,2.07
2022-11-02T07:04:03.889Z,1.58
2022-11-02T07:06:33.195Z,1.63
2022-11-02T07:09:01.100Z,1.98
2022-11-02T07:11:28.972Z,1.85
2022-11-02T07:13:56.868Z,1.65
2022-11-02T07:16:25.179Z,1.80
2022-11-02T07:18:53.069Z,1.70
2022-11-02T07:23:55.605Z,1.60
2022-11-02T07:26:23.558Z,1.33
2022-11-02T07:28:58.281Z,1.83
2022-11-02T07:31:27.205Z,2.00
2022-11-02T07:33:55.073Z,1.63
2022-11-02T07:36:23.115Z,2.07
2022-11-02T07:38:50.978Z,1.73
2022-11-02T07:41:20.302Z,2.00
2022-11-02T07:43:48.163Z,1.70
2022-11-02T07:46:16.194Z,1.50
2022-11-02T07:48:44.096Z,2.38
2022-11-02T07:51:12.973Z,1.55
2022-11-02T07:53:41.078Z,1.70
2022-11-02T07:56:09.268Z,1.80
2022-11-02T07:58:38.728Z,1.80
2022-11-02T08:01:06.878Z,1.30
2022-11-02T08:03:34.806Z,1.70
2022-11-02T08:06:04.127Z,2.08
2022-11-02T08:08:32.314Z,1.70
2022-11-02T08:11:06.178Z,2.00
2022-11-02T08:13:36.305Z,1.40
2022-11-02T08:16:06.093Z,1.98
2022-11-02T08:18:34.065Z,1.85
2022-11-02T08:21:01.989Z,1.70
2022-11-02T08:23:29.863Z,1.50
2022-11-02T08:26:00.273Z,1.65
2022-11-02T08:28:31.101Z,1.80
2022-11-02T08:30:59.681Z,1.80
2022-11-02T08:33:29.039Z,2.20
2022-11-02T08:36:02.994Z,2.30
2022-11-02T08:38:30.897Z,2.22
2022-11-02T08:40:58.851Z,1.77
2022-11-02T08:43:26.886Z,1.90
2022-11-02T08:46:15.545Z,2.65
2022-11-02T08:48:46.157Z,2.10
2022-11-02T08:51:14.079Z,1.85
2022-11-02T08:53:44.718Z,2.00
2022-11-02T08:56:15.186Z,1.73
2022-11-02T08:58:43.070Z,2.20
2022-11-02T09:01:10.957Z,1.67
2022-11-02T09:03:38.944Z,1.40
2022-11-02T09:06:08.569Z,1.90
2022-11-02T09:08:36.493Z,1.70
2022-11-02T09:11:05.039Z,1.48
2022-11-02T09:13:33.042Z,1.60
2022-11-02T09:16:02.574Z,1.73
2022-11-02T09:18:31.000Z,2.22
2022-11-02T09:21:02.855Z,1.60
2022-11-02T09:23:32.637Z,1.50
2022-11-02T09:26:00.966Z,1.98
2022-11-02T09:28:29.111Z,1.80
2022-11-02T09:30:57.127Z,1.60
2022-11-02T09:33:25.067Z,1.67
2022-11-02T09:35:52.959Z,1.85
2022-11-02T09:38:20.868Z,1.63
2022-11-02T09:41:01.865Z,1.53
2022-11-02T09:43:39.839Z,2.03
2022-11-02T09:46:11.161Z,1.70
2022-11-02T09:48:43.023Z,1.50
2022-11-02T09:51:15.586Z,2.00
2022-11-02T09:53:54.348Z,1.42
2022-11-02T09:56:23.620Z,1.90
2022-11-02T09:58:58.308Z,1.88
2022-11-02T10:01:39.177Z,2.22
2022-11-02T10:04:44.344Z,1.85
2022-11-02T10:07:25.415Z,1.65
2022-11-02T10:09:57.630Z,2.25
2022-11-02T10:12:35.476Z,1.67
2022-11-02T10:15:06.858Z,2.00
2022-11-02T10:17:39.730Z,1.85
2022-11-02T10:20:17.865Z,2.00
2022-11-02T10:22:48.147Z,2.70
2022-11-02T10:25:17.967Z,1.92
2022-11-02T10:27:51.290Z,2.40
2022-11-02T10:30:21.756Z,2.25
2022-11-02T10:32:53.621Z,1.90
2022-11-02T10:35:41.253Z,2.03
2022-11-02T10:38:30.318Z,1.50
2022-11-02T10:41:16.230Z,1.90
2022-11-02T10:44:08.079Z,1.98
2022-11-02T10:46:46.609Z,2.33
2022-11-02T10:49:22.265Z,2.00
2022-11-02T10:51:51.275Z,2.00
2022-11-02T10:54:23.998Z,2.08
2022-11-02T10:56:57.615Z,2.17
2022-11-02T10:59:26.910Z,2.33
2022-11-02T11:02:10.983Z,1.95
2022-11-02T11:04:39.166Z,2.30
2022-11-02T11:07:09.899Z,2.13
2022-11-02T11:09:47.201Z,2.33
2022-11-02T11:12:21.015Z,2.40
2022-11-02T11:20:37.172Z,2.90
2022-11-02T11:23:20.386Z,2.30
2022-11-02T11:25:59.795Z,2.00
2022-11-02T11:28:31.409Z,2.45
2022-11-02T11:31:22.013Z,2.33
2022-11-02T11:33:53.855Z,2.95
2022-11-02T11:38:57.895Z,2.50
2022-11-02T11:41:26.277Z,2.00
2022-11-02T11:43:54.824Z,2.40
2022-11-02T11:46:24.229Z,2.58
2022-11-02T11:48:54.045Z,2.20
2022-11-02T11:51:35.831Z,2.50
2022-11-02T11:54:15.861Z,2.30
2022-11-02T11:56:43.773Z,2.28
2022-11-02T11:59:21.480Z,2.25
2022-11-02T12:01:54.240Z,2.50
2022-11-02T12:04:34.357Z,2.17
2022-11-02T12:07:20.960Z,2.10
2022-11-02T12:10:00.229Z,2.30
2022-11-02T12:12:39.832Z,2.47
2022-11-02T12:15:22.315Z,2.20
2022-11-02T12:18:03.903Z,1.77
2022-11-02T12:20:46.608Z,2.17
2022-11-02T12:23:34.253Z,2.17
2022-11-02T12:26:15.502Z,2.08
2022-11-02T12:28:52.227Z,2.30
2022-11-02T12:31:32.358Z,2.60
2022-11-02T12:34:18.947Z,2.00
2022-11-02T12:40:04.127Z,2.22
2022-11-02T12:42:37.984Z,1.80
2022-11-02T12:45:22.892Z,2.50
2022-11-02T12:47:58.284Z,2.17
2022-11-02T12:50:37.604Z,2.00
2022-11-02T12:53:21.998Z,2.80
2022-11-02T12:55:54.587Z,2.97
2022-11-02T12:58:27.182Z,2.58
2022-11-02T13:00:59.803Z,2.38
2022-11-02T13:03:36.433Z,2.50
2022-11-02T13:06:11.681Z,2.78
2022-11-02T13:08:45.564Z,3.20
2022-11-02T13:11:17.898Z,2.65
2022-11-02T13:13:49.904Z,2.20
2022-11-02T13:16:21.821Z,2.95
2022-11-02T13:18:53.343Z,2.65
2022-11-02T13:21:30.928Z,2.15
2022-11-02T13:24:01.297Z,2.00
2022-11-02T13:26:32.948Z,2.42
2022-11-02T13:29:05.244Z,2.20
2022-11-02T13:31:36.838Z,2.70
2022-11-02T13:34:13.792Z,1.80
2022-11-02T13:36:45.024Z,2.60
2022-11-02T13:39:19.184Z,2.00
2022-11-02T13:42:05.708Z,2.38
2022-11-02T13:45:24.359Z,2.17
2022-11-02T13:48:17.135Z,2.30
2022-11-02T13:50:50.962Z,2.40
2022-11-02T13:53:24.147Z,2.73
2022-11-02T13:55:55.750Z,2.30
2022-11-02T13:58:27.232Z,3.15
2022-11-02T14:00:59.618Z,3.13
2022-11-02T14:03:32.615Z,3.00
2022-11-02T14:06:03.197Z,2.80
2022-11-02T14:08:38.439Z,2.10
2022-11-02T14:11:23.021Z,3.38
2022-11-02T14:14:15.727Z,3.08
2022-11-02T14:16:58.544Z,3.60
2022-11-02T14:19:33.075Z,4.03
2022-11-02T14:22:12.793Z,2.72
2022-11-02T14:24:56.232Z,3.40
2022-11-02T14:27:31.848Z,3.25
2022-11-02T14:30:00.160Z,3.20
2022-11-02T14:32:57.128Z,2.88
2022-11-02T14:35:41.937Z,2.85
2022-11-02T14:38:35.576Z,3.25
2022-11-02T14:41:17.718Z,3.25
2022-11-02T14:44:02.202Z,2.92
2022-11-02T14:46:45.493Z,3.10
2022-11-02T14:49:20.043Z,3.03
2022-11-02T14:52:03.465Z,2.53
2022-11-02T14:54:35.107Z,3.35
2022-11-02T14:57:09.273Z,2.50
2022-11-02T14:59:40.873Z,3.05
2022-11-02T15:02:14.945Z,2.97
2022-11-02T15:04:50.121Z,2.35
2022-11-02T15:07:22.457Z,2.80
2022-11-02T15:09:55.482Z,3.42
2022-11-02T15:12:37.558Z,2.30
2022-11-02T15:15:38.882Z,1.88
2022-11-02T15:18:35.577Z,2.42
2022-11-02T15:21:23.417Z,2.20
2022-11-02T15:24:15.669Z,2.83
2022-11-02T15:26:57.311Z,2.40
2022-11-02T15:29:37.837Z,2.60
2022-11-02T15:32:09.849Z,2.80
2022-11-02T15:34:41.879Z,2.70
2022-11-02T15:37:14.135Z,3.28
2022-11-02T15:39:48.242Z,2.35
2022-11-02T15:42:25.342Z,2.28
2022-11-02T15:45:26.823Z,2.38
2022-11-02T15:48:08.729Z,2.13
2022-11-02T15:50:45.660Z,2.15
2022-11-02T15:53:44.721Z,1.85
2022-11-02T15:56:29.190Z,2.38
2022-11-02T15:59:15.508Z,2.50
2022-11-02T16:01:44.924Z,3.40
2022-11-02T16:04:23.145Z,2.23
2022-11-02T16:06:51.124Z,2.80
2022-11-02T16:09:33.285Z,2.10
2022-11-02T16:12:11.081Z,2.75
2022-11-02T16:14:39.017Z,2.80
2022-11-02T16:17:20.284Z,2.70
2022-11-02T16:19:49.245Z,2.00
2022-11-02T16:22:24.822Z,3.10
2022-11-02T16:24:54.336Z,3.13
2022-11-02T16:27:23.238Z,1.80
2022-11-02T16:29:52.002Z,2.55
2022-11-02T16:32:21.294Z,2.00
2022-11-02T16:34:49.424Z,2.90
2022-11-02T16:37:19.315Z,2.47
2022-11-02T16:39:48.388Z,2.60
2022-11-02T16:42:18.883Z,2.83
2022-11-02T16:44:57.070Z,2.90
2022-11-02T16:47:40.905Z,1.83
2022-11-02T16:50:22.872Z,2.25
2022-11-02T16:53:02.297Z,2.33
2022-11-02T16:55:37.364Z,2.50
2022-11-02T16:58:07.672Z,1.88
2022-11-02T17:00:40.373Z,2.92
2022-11-02T17:03:11.924Z,2.88
2022-11-02T17:05:46.298Z,2.30
2022-11-02T17:08:29.229Z,2.20
2022-11-02T17:11:00.109Z,1.90
2022-11-02T17:13:30.654Z,2.00
2022-11-02T17:16:05.603Z,2.20
2022-11-02T17:18:34.886Z,2.13
2022-11-02T17:21:32.667Z,2.08
2022-11-02T17:24:00.899Z,1.98
2022-11-02T17:26:34.942Z,2.90
2022-11-02T17:29:04.867Z,2.10
2022-11-02T17:31:34.864Z,1.95
2022-11-02T17:34:10.090Z,2.30
2022-11-02T17:36:43.263Z,2.20
2022-11-02T17:39:13.554Z,2.80
2022-11-02T17:41:59.332Z,2.05
2022-11-02T17:44:27.228Z,3.20
2022-11-02T17:46:56.322Z,2.65
2022-11-02T17:49:25.579Z,2.70
2022-11-02T17:51:53.583Z,3.10
2022-11-02T17:54:21.513Z,2.05
2022-11-02T17:56:49.430Z,2.78
2022-11-02T17:59:17.299Z,2.00
2022-11-02T18:01:45.564Z,2.45
2022-11-02T18:04:13.548Z,2.53
2022-11-02T18:06:42.829Z,2.30
2022-11-02T18:09:14.618Z,2.50
2022-11-02T18:11:42.920Z,2.28
2022-11-02T18:14:15.665Z,2.30
2022-11-02T18:16:44.683Z,2.20
2022-11-02T18:19:12.764Z,2.60
2022-11-02T18:21:42.118Z,2.75
2022-11-02T18:24:10.941Z,2.15
2022-11-02T18:26:41.420Z,2.93
2022-11-02T18:29:12.230Z,2.80
2022-11-02T18:31:40.136Z,2.40
2022-11-02T18:34:08.080Z,2.50
2022-11-02T18:36:38.272Z,2.88
2022-11-02T18:39:07.729Z,2.30
2022-11-02T18:41:37.402Z,2.77
2022-11-02T18:44:13.515Z,2.35
2022-11-02T18:46:43.057Z,2.13
2022-11-02T18:49:11.030Z,2.80
2022-11-02T18:51:42.824Z,2.22
2022-11-02T18:54:13.066Z,2.50
2022-11-02T18:56:41.008Z,1.80
2022-11-02T18:59:08.892Z,2.42
2022-11-02T19:01:36.971Z,2.10
2022-11-02T19:04:05.370Z,2.00
2022-11-02T19:06:52.662Z,2.60
2022-11-02T19:09:24.044Z,2.35
2022-11-02T19:11:56.670Z,2.95
2022-11-02T19:14:25.502Z,2.27
2022-11-02T19:16:53.383Z,2.00
2022-11-02T19:19:21.440Z,2.63
2022-11-02T19:21:49.632Z,2.70
2022-11-02T19:24:17.750Z,2.70
2022-11-02T19:26:47.172Z,3.10
2022-11-02T19:29:15.148Z,1.90
2022-11-02T19:31:43.316Z,2.70
2022-11-02T19:34:11.254Z,2.40
2022-11-02T19:36:39.492Z,2.42
2022-11-02T19:39:09.642Z,2.47
2022-11-02T19:41:39.343Z,2.35
2022-11-02T19:44:08.697Z,2.60
2022-11-02T19:46:36.716Z,2.50
2022-11-02T19:49:04.692Z,2.20
2022-11-02T19:51:33.186Z,2.47
2022-11-02T19:54:02.719Z,2.55
2022-11-02T19:56:32.396Z,2.47
2022-11-02T19:59:01.008Z,2.40
2022-11-02T20:01:32.049Z,2.72
2022-11-02T20:04:00.548Z,2.60
2022-11-02T20:06:32.112Z,2.40
2022-11-02T20:09:01.673Z,2.20
2022-11-02T20:11:30.162Z,2.80
2022-11-02T20:13:59.259Z,2.90
2022-11-02T20:16:27.729Z,2.63
2022-11-02T20:18:57.643Z,2.60
2022-11-02T20:21:33.340Z,2.20
2022-11-02T20:24:03.946Z,2.25
2022-11-02T20:26:34.469Z,2.92
2022-11-02T20:29:03.620Z,2.90
2022-11-02T20:31:33.429Z,2.72
2022-11-02T20:34:03.364Z,2.85
2022-11-02T20:36:31.497Z,2.60
2022-11-02T20:38:59.955Z,2.72
2022-11-02T20:41:28.221Z,2.90
2022-11-02T20:43:56.931Z,4.40
2022-11-02T20:46:42.639Z,2.80
2022-11-02T20:49:22.249Z,2.50
2022-11-02T20:52:01.381Z,3.10
2022-11-02T20:54:29.777Z,2.80
2022-11-02T20:56:57.940Z,3.00
2022-11-02T20:59:26.260Z,2.78
2022-11-02T21:01:54.542Z,2.72
2022-11-02T21:04:23.885Z,2.63
2022-11-02T21:06:51.899Z,3.10
2022-11-02T21:09:20.288Z,2.60
2022-11-02T21:12:05.537Z,3.00
2022-11-02T21:14:33.543Z,3.00
2022-11-02T21:17:02.805Z,3.00
2022-11-02T21:19:32.180Z,3.28
2022-11-02T21:22:00.801Z,2.70
2022-11-02T21:24:29.243Z,2.40
2022-11-02T21:26:57.200Z,2.50
2022-11-02T21:29:25.251Z,2.73
2022-11-02T21:31:53.187Z,3.00
2022-11-02T21:34:21.163Z,2.42
2022-11-02T21:36:50.464Z,2.83
2022-11-02T21:39:18.371Z,2.85
2022-11-02T21:41:46.299Z,2.47
2022-11-02T21:44:14.258Z,3.03
2022-11-02T21:46:42.710Z,2.95
2022-11-02T21:49:10.714Z,2.95
2022-11-02T21:51:38.646Z,2.47
2022-11-02T21:54:08.016Z,2.47
2022-11-02T21:56:36.865Z,2.72
2022-11-02T21:59:05.793Z,3.00
2022-11-02T22:01:48.986Z,2.75
2022-11-02T22:04:19.617Z,3.60
2022-11-02T22:06:47.880Z,3.33
2022-11-02T22:09:17.157Z,3.20
2022-11-02T22:11:45.298Z,2.70
2022-11-02T22:14:13.394Z,3.17
2022-11-02T22:16:43.175Z,2.05
2022-11-02T22:19:12.624Z,3.38
2022-11-02T22:21:42.957Z,2.50
2022-11-02T22:24:11.845Z,3.00
2022-11-02T22:26:41.425Z,3.15
2022-11-02T22:29:09.836Z,2.80
2022-11-02T22:31:39.642Z,2.70
2022-11-02T22:34:09.068Z,3.40
2022-11-02T22:36:38.235Z,3.35
2022-11-02T22:39:07.221Z,2.70
2022-11-02T22:41:36.921Z,3.42
2022-11-02T22:44:08.231Z,2.95
2022-11-02T22:46:39.005Z,3.20
2022-11-02T22:49:08.270Z,3.00
2022-11-02T22:51:38.453Z,3.40
2022-11-02T22:54:08.331Z,3.25
2022-11-02T22:56:36.797Z,3.17
2022-11-02T22:59:06.507Z,2.85
2022-11-02T23:01:36.142Z,3.60
2022-11-02T23:04:04.650Z,2.70
2022-11-02T23:06:32.711Z,3.40
2022-11-02T23:09:01.343Z,2.80
2022-11-02T23:11:30.580Z,2.65
2022-11-02T23:14:00.474Z,2.42
2022-11-02T23:16:33.937Z,2.80
2022-11-02T23:19:30.933Z,3.88
2022-11-02T23:22:18.352Z,2.90
2022-11-02T23:25:05.211Z,2.70
2022-11-02T23:27:34.471Z,2.92
2022-11-02T23:30:19.779Z,3.00
2022-11-02T23:32:50.840Z,2.70
2022-11-02T23:35:36.373Z,3.60
2022-11-02T23:38:06.071Z,2.75
2022-11-02T23:40:34.214Z,2.50
2022-11-02T23:43:02.976Z,2.60
2022-11-02T23:45:31.186Z,2.40
2022-11-02T23:48:03.080Z,2.90
2022-11-02T23:50:50.757Z,2.58
2022-11-02T23:53:38.828Z,2.90
2022-11-02T23:56:31.058Z,2.50
2022-11-02T23:59:07.249Z,2.50
